Concerto — JJ3855 — position and weather

sailwx.info

Track history (hours):
 
Tides and Currents Weather Stations Pressure Air Temp Water Temp Dewpoint Dewpoint Depression Visibility Wind Speed Wind Dir Waves Ship Positions

Concerto

Last reported at 2014-Dec-19 02:33 UTC. Time now 2014-Dec-19 03:14 UTC.
Position N 34°41' E 135°11'.

Length 62 m; draft 3 m.

Type: Passenger vessel. MMSI: 431000448.

Date/timePositionNaut miles runAvg speedWind from/ knotsBaromVisibWave heightAir tempDewpointWater temp
2014-Dec-19 02:33N 34°41' E 135°11'0 0.0
2014-Dec-19 01:33N 34°41' E 135°11'3 0.2
2014-Dec-18 11:33N 34°38' E 135°10'2 2.3
2014-Dec-18 10:33N 34°40' E 135°11'0 0.4
2014-Dec-18 09:33N 34°39' E 135°11'1 1.2
2014-Dec-18 08:33N 34°38' E 135°11'2 2.4
2014-Dec-18 07:33N 34°41' E 135°11'3 3.5
2014-Dec-18 06:33N 34°38' E 135°09'3 3.3
2014-Dec-18 05:31N 34°41' E 135°11'0 0.3
2014-Dec-18 04:33N 34°41' E 135°11'3 3.1
2014-Dec-18 03:33N 34°38' E 135°10'3 3.2
2014-Dec-18 02:33N 34°41' E 135°11'1 0.0
2014-Dec-17 11:33N 34°40' E 135°12'0 0.3
2014-Dec-17 10:33N 34°40' E 135°11'0 0.5
2014-Dec-17 09:33N 34°40' E 135°12'0 0.1
2014-Dec-17 08:34N 34°40' E 135°12'1 1.2
2014-Dec-17 07:33N 34°41' E 135°11'3 2.8
2014-Dec-17 06:33N 34°38' E 135°10'3 2.8
2014-Dec-17 05:33N 34°41' E 135°11'0 0.4
2014-Dec-17 04:33N 34°40' E 135°11'2 2.2
2014-Dec-17 03:33N 34°38' E 135°11'3 2.5
2014-Dec-17 02:33N 34°41' E 135°11'3 0.2
2014-Dec-16 11:33N 34°38' E 135°10'2 2.0
2014-Dec-16 10:33N 34°40' E 135°11'0 0.2
2014-Dec-16 09:33N 34°40' E 135°12'1 1.4
2014-Dec-16 08:33N 34°39' E 135°11'2 2.0
2014-Dec-16 07:28N 34°41' E 135°11'3 3.8
2014-Dec-16 06:33N 34°38' E 135°09'3 2.9
2014-Dec-16 05:22N 34°41' E 135°11'0 0.6
2014-Dec-16 04:33N 34°40' E 135°11'3 3.0
2014-Dec-16 03:32N 34°38' E 135°09'3 3.3
2014-Dec-16 02:33N 34°41' E 135°11'2 0.2
2014-Dec-15 11:34N 34°38' E 135°11'1 1.4
2014-Dec-15 10:33N 34°40' E 135°11'0 0.4
2014-Dec-15 09:33N 34°39' E 135°11'1 0.9
2014-Dec-15 08:33N 34°39' E 135°11'2 2.2
2014-Dec-15 07:32N 34°41' E 135°11'3 3.4
2014-Dec-15 06:33N 34°38' E 135°09'3 3.2
2014-Dec-15 05:30N 34°41' E 135°11'1 0.6
2014-Dec-15 04:33N 34°40' E 135°11'3 3.4
2014-Dec-15 03:33N 34°38' E 135°09'4 3.5
2014-Dec-15 02:33N 34°41' E 135°11'0 0.1
2014-Dec-15 01:33N 34°41' E 135°11'1 0.1
2014-Dec-14 12:16N 34°40' E 135°12'5 6.6
2014-Dec-14 11:33N 34°37' E 135°07'5 4.7
2014-Dec-14 10:30N 34°41' E 135°11'4 4.2
2014-Dec-14 09:34N 34°37' E 135°09'4 4.0
2014-Dec-14 08:34N 34°41' E 135°11'1 0.9
2014-Dec-14 07:33N 34°40' E 135°12'1 0.9
2014-Dec-14 06:33N 34°41' E 135°11'2 2.0
2014-Dec-14 05:33N 34°39' E 135°11'2 2.0
2014-Dec-14 04:33N 34°41' E 135°11'3 2.6
2014-Dec-14 03:33N 34°38' E 135°11'3 2.6
2014-Dec-14 02:34N 34°41' E 135°11'0 0.0
2014-Dec-13 12:20N 34°41' E 135°11'5 5.9
2014-Dec-13 11:33N 34°37' E 135°07'5 4.7
2014-Dec-13 10:33N 34°41' E 135°11'3 3.4
2014-Dec-13 09:33N 34°38' E 135°09'3 3.4
2014-Dec-13 08:33N 34°41' E 135°11'2 1.5
2014-Dec-13 07:32N 34°39' E 135°11'2 1.5
2014-Dec-13 06:33N 34°41' E 135°11'2 2.3
2014-Dec-13 05:33N 34°38' E 135°11'2 2.3
2014-Dec-13 04:33N 34°41' E 135°11'3 2.5
2014-Dec-13 03:33N 34°38' E 135°11'3 2.5
2014-Dec-13 02:33N 34°41' E 135°11'0 0.0
2014-Dec-13 01:33N 34°41' E 135°11'3 0.2
2014-Dec-12 11:33N 34°38' E 135°10'2 2.1
2014-Dec-12 10:33N 34°40' E 135°11'0 0.4
2014-Dec-12 09:33N 34°39' E 135°11'1 1.1
2014-Dec-12 08:33N 34°39' E 135°11'2 2.1
2014-Dec-12 07:28N 34°41' E 135°11'3 3.7
2014-Dec-12 06:33N 34°38' E 135°09'3 3.4
2014-Dec-12 05:32N 34°41' E 135°11'0 0.2
2014-Dec-12 04:33N 34°41' E 135°11'3 3.4
2014-Dec-12 03:33N 34°38' E 135°09'3 3.5
2014-Dec-12 02:33N 34°41' E 135°11'3 0.2
2014-Dec-11 11:34N 34°38' E 135°10'2 2.1
2014-Dec-11 10:33N 34°40' E 135°11'1 0.9
2014-Dec-11 09:33N 34°39' E 135°12'1 0.8
2014-Dec-11 08:33N 34°39' E 135°11'2 2.0
2014-Dec-11 07:25N 34°41' E 135°11'3 3.8
2014-Dec-11 06:33N 34°38' E 135°09'3 3.2
2014-Dec-11 05:32N 34°41' E 135°11'2 2.3
2014-Dec-11 04:33N 34°39' E 135°11'2 2.2
2014-Dec-11 03:33N 34°41' E 135°11'0 0.0
2014-Dec-11 02:33N 34°41' E 135°11'3 0.2
2014-Dec-10 11:33N 34°38' E 135°10'2 2.1
2014-Dec-10 10:33N 34°40' E 135°11'1 1.4
2014-Dec-10 09:34N 34°39' E 135°11'1 0.5
2014-Dec-10 08:33N 34°39' E 135°11'2 2.1
2014-Dec-10 07:32N 34°41' E 135°11'3 3.4
2014-Dec-10 06:33N 34°38' E 135°09'3 2.8
2014-Dec-10 05:23N 34°41' E 135°11'0 0.0
2014-Dec-10 04:29N 34°41' E 135°11'5 5.3
2014-Dec-10 03:33N 34°37' E 135°07'5 4.9
2014-Dec-10 02:33N 34°41' E 135°11'3 0.2
2014-Dec-09 11:33N 34°38' E 135°11'2 1.9
2014-Dec-09 10:33N 34°40' E 135°11'0 0.1
2014-Dec-09 09:33N 34°40' E 135°11'1 1.5
2014-Dec-09 08:33N 34°39' E 135°10'2 2.2
2014-Dec-09 07:30N 34°41' E 135°11'3 3.5
2014-Dec-09 06:33N 34°38' E 135°09'3 3.3
2014-Dec-09 05:32N 34°41' E 135°11'0 0.0
2014-Dec-09 04:23N 34°41' E 135°11'5 6.2
2014-Dec-09 03:32N 34°37' E 135°07'5 5.3
2014-Dec-09 02:33N 34°41' E 135°11'  
Track history (hours):
 
Tides and Currents Weather Stations Pressure Air Temp Water Temp Dewpoint Dewpoint Depression Visibility Wind Speed Wind Dir Waves Ship Positions

Concerto

Last reported at 2014-Dec-19 02:33 UTC. Time now 2014-Dec-19 03:14 UTC.
Position N 34°41' E 135°11'.

Length 62 m; draft 3 m.

Type: Passenger vessel. MMSI: 431000448.

Date/timePositionNaut miles runAvg speedWind from/ knotsBaromVisibWave heightAir tempDewpointWater temp
2014-Dec-19 02:33N 34°41' E 135°11'0 0.0
2014-Dec-19 01:33N 34°41' E 135°11'3 0.2
2014-Dec-18 11:33N 34°38' E 135°10'2 2.3
2014-Dec-18 10:33N 34°40' E 135°11'0 0.4
2014-Dec-18 09:33N 34°39' E 135°11'1 1.2
2014-Dec-18 08:33N 34°38' E 135°11'2 2.4
2014-Dec-18 07:33N 34°41' E 135°11'3 3.5
2014-Dec-18 06:33N 34°38' E 135°09'3 3.3
2014-Dec-18 05:31N 34°41' E 135°11'0 0.3
2014-Dec-18 04:33N 34°41' E 135°11'3 3.1
2014-Dec-18 03:33N 34°38' E 135°10'3 3.2
2014-Dec-18 02:33N 34°41' E 135°11'1 0.0
2014-Dec-17 11:33N 34°40' E 135°12'0 0.3
2014-Dec-17 10:33N 34°40' E 135°11'0 0.5
2014-Dec-17 09:33N 34°40' E 135°12'0 0.1
2014-Dec-17 08:34N 34°40' E 135°12'1 1.2
2014-Dec-17 07:33N 34°41' E 135°11'3 2.8
2014-Dec-17 06:33N 34°38' E 135°10'3 2.8
2014-Dec-17 05:33N 34°41' E 135°11'0 0.4
2014-Dec-17 04:33N 34°40' E 135°11'2 2.2
2014-Dec-17 03:33N 34°38' E 135°11'3 2.5
2014-Dec-17 02:33N 34°41' E 135°11'3 0.2
2014-Dec-16 11:33N 34°38' E 135°10'2 2.0
2014-Dec-16 10:33N 34°40' E 135°11'0 0.2
2014-Dec-16 09:33N 34°40' E 135°12'1 1.4
2014-Dec-16 08:33N 34°39' E 135°11'2 2.0
2014-Dec-16 07:28N 34°41' E 135°11'3 3.8
2014-Dec-16 06:33N 34°38' E 135°09'3 2.9
2014-Dec-16 05:22N 34°41' E 135°11'0 0.6
2014-Dec-16 04:33N 34°40' E 135°11'3 3.0
2014-Dec-16 03:32N 34°38' E 135°09'3 3.3
2014-Dec-16 02:33N 34°41' E 135°11'2 0.2
2014-Dec-15 11:34N 34°38' E 135°11'1 1.4
2014-Dec-15 10:33N 34°40' E 135°11'0 0.4
2014-Dec-15 09:33N 34°39' E 135°11'1 0.9
2014-Dec-15 08:33N 34°39' E 135°11'2 2.2
2014-Dec-15 07:32N 34°41' E 135°11'3 3.4
2014-Dec-15 06:33N 34°38' E 135°09'3 3.2
2014-Dec-15 05:30N 34°41' E 135°11'1 0.6
2014-Dec-15 04:33N 34°40' E 135°11'3 3.4
2014-Dec-15 03:33N 34°38' E 135°09'4 3.5
2014-Dec-15 02:33N 34°41' E 135°11'0 0.1
2014-Dec-15 01:33N 34°41' E 135°11'1 0.1
2014-Dec-14 12:16N 34°40' E 135°12'5 6.6
2014-Dec-14 11:33N 34°37' E 135°07'5 4.7
2014-Dec-14 10:30N 34°41' E 135°11'4 4.2
2014-Dec-14 09:34N 34°37' E 135°09'4 4.0
2014-Dec-14 08:34N 34°41' E 135°11'1 0.9
2014-Dec-14 07:33N 34°40' E 135°12'1 0.9
2014-Dec-14 06:33N 34°41' E 135°11'2 2.0
2014-Dec-14 05:33N 34°39' E 135°11'2 2.0
2014-Dec-14 04:33N 34°41' E 135°11'3 2.6
2014-Dec-14 03:33N 34°38' E 135°11'3 2.6
2014-Dec-14 02:34N 34°41' E 135°11'0 0.0
2014-Dec-13 12:20N 34°41' E 135°11'5 5.9
2014-Dec-13 11:33N 34°37' E 135°07'5 4.7
2014-Dec-13 10:33N 34°41' E 135°11'3 3.4
2014-Dec-13 09:33N 34°38' E 135°09'3 3.4
2014-Dec-13 08:33N 34°41' E 135°11'2 1.5
2014-Dec-13 07:32N 34°39' E 135°11'2 1.5
2014-Dec-13 06:33N 34°41' E 135°11'2 2.3
2014-Dec-13 05:33N 34°38' E 135°11'2 2.3
2014-Dec-13 04:33N 34°41' E 135°11'3 2.5
2014-Dec-13 03:33N 34°38' E 135°11'3 2.5
2014-Dec-13 02:33N 34°41' E 135°11'0 0.0
2014-Dec-13 01:33N 34°41' E 135°11'3 0.2
2014-Dec-12 11:33N 34°38' E 135°10'2 2.1
2014-Dec-12 10:33N 34°40' E 135°11'0 0.4
2014-Dec-12 09:33N 34°39' E 135°11'1 1.1
2014-Dec-12 08:33N 34°39' E 135°11'2 2.1
2014-Dec-12 07:28N 34°41' E 135°11'3 3.7
2014-Dec-12 06:33N 34°38' E 135°09'3 3.4
2014-Dec-12 05:32N 34°41' E 135°11'0 0.2
2014-Dec-12 04:33N 34°41' E 135°11'3 3.4
2014-Dec-12 03:33N 34°38' E 135°09'3 3.5
2014-Dec-12 02:33N 34°41' E 135°11'3 0.2
2014-Dec-11 11:34N 34°38' E 135°10'2 2.1
2014-Dec-11 10:33N 34°40' E 135°11'1 0.9
2014-Dec-11 09:33N 34°39' E 135°12'1 0.8
2014-Dec-11 08:33N 34°39' E 135°11'2 2.0
2014-Dec-11 07:25N 34°41' E 135°11'3 3.8
2014-Dec-11 06:33N 34°38' E 135°09'3 3.2
2014-Dec-11 05:32N 34°41' E 135°11'2 2.3
2014-Dec-11 04:33N 34°39' E 135°11'2 2.2
2014-Dec-11 03:33N 34°41' E 135°11'0 0.0
2014-Dec-11 02:33N 34°41' E 135°11'3 0.2
2014-Dec-10 11:33N 34°38' E 135°10'2 2.1
2014-Dec-10 10:33N 34°40' E 135°11'1 1.4
2014-Dec-10 09:34N 34°39' E 135°11'1 0.5
2014-Dec-10 08:33N 34°39' E 135°11'2 2.1
2014-Dec-10 07:32N 34°41' E 135°11'3 3.4
2014-Dec-10 06:33N 34°38' E 135°09'3 2.8
2014-Dec-10 05:23N 34°41' E 135°11'0 0.0
2014-Dec-10 04:29N 34°41' E 135°11'5 5.3
2014-Dec-10 03:33N 34°37' E 135°07'5 4.9
2014-Dec-10 02:33N 34°41' E 135°11'3 0.2
2014-Dec-09 11:33N 34°38' E 135°11'2 1.9
2014-Dec-09 10:33N 34°40' E 135°11'0 0.1
2014-Dec-09 09:33N 34°40' E 135°11'1 1.5
2014-Dec-09 08:33N 34°39' E 135°10'2 2.2
2014-Dec-09 07:30N 34°41' E 135°11'3 3.5
2014-Dec-09 06:33N 34°38' E 135°09'3 3.3
2014-Dec-09 05:32N 34°41' E 135°11'0 0.0
2014-Dec-09 04:23N 34°41' E 135°11'5 6.2
2014-Dec-09 03:32N 34°37' E 135°07'5 5.3
2014-Dec-09 02:33N 34°41' E 135°11'  

Dump ship's entire track history